createdAt,value
2017-09-29T00:00:31.065Z,45.73
2017-09-29T00:03:00.969Z,43.37
2017-09-29T00:05:30.900Z,46.73
2017-09-29T00:08:00.818Z,45.00
2017-09-29T00:10:31.037Z,45.80
2017-09-29T00:13:00.906Z,43.97
2017-09-29T00:15:31.178Z,45.23
2017-09-29T00:18:01.063Z,44.80
2017-09-29T00:20:30.977Z,43.80
2017-09-29T00:23:00.859Z,44.90
2017-09-29T00:25:31.003Z,44.97
2017-09-29T00:28:01.087Z,47.17
2017-09-29T00:30:31.221Z,44.73
2017-09-29T00:33:01.095Z,44.20
2017-09-29T00:35:30.998Z,48.40
2017-09-29T00:38:00.880Z,46.53
2017-09-29T00:40:31.226Z,48.57
2017-09-29T00:43:01.085Z,47.37
2017-09-29T00:45:31.250Z,47.27
2017-09-29T00:48:01.118Z,46.93
2017-09-29T00:50:30.993Z,49.00
2017-09-29T00:53:00.861Z,48.10
2017-09-29T00:55:31.011Z,49.20
2017-09-29T00:58:00.878Z,51.20
2017-09-29T01:00:31.076Z,46.80
2017-09-29T01:03:00.946Z,48.03
2017-09-29T01:05:31.089Z,48.53
2017-09-29T01:08:00.971Z,50.10
2017-09-29T01:10:31.117Z,52.30
2017-09-29T01:13:00.997Z,50.67
2017-09-29T01:15:30.897Z,48.07
2017-09-29T01:18:00.766Z,50.77
2017-09-29T01:20:31.083Z,50.47
2017-09-29T01:23:00.949Z,49.37
2017-09-29T01:25:30.954Z,52.67
2017-09-29T01:28:00.831Z,49.53
2017-09-29T01:30:31.035Z,53.80
2017-09-29T01:33:00.903Z,49.83
2017-09-29T01:35:31.058Z,50.03
2017-09-29T01:38:00.974Z,50.07
2017-09-29T01:40:30.858Z,48.03
2017-09-29T01:43:00.721Z,52.07
2017-09-29T01:45:30.620Z,49.07
2017-09-29T01:48:00.464Z,48.93
2017-09-29T01:50:30.322Z,47.47
2017-09-29T01:53:00.177Z,46.50
2017-09-29T01:55:30.029Z,46.93
2017-09-29T01:58:00.185Z,47.33
2017-09-29T02:00:30.079Z,48.40
2017-09-29T02:02:59.947Z,48.33
2017-09-29T02:05:29.794Z,51.17
2017-09-29T02:07:59.970Z,48.17
2017-09-29T02:10:29.842Z,48.20
2017-09-29T02:12:59.739Z,50.43
2017-09-29T02:15:29.608Z,47.50
2017-09-29T02:17:59.742Z,46.70
2017-09-29T02:20:29.605Z,48.37
2017-09-29T02:22:59.830Z,50.27
2017-09-29T02:25:29.689Z,46.90
2017-09-29T02:27:59.838Z,47.50
2017-09-29T02:30:29.712Z,47.87
2017-09-29T02:32:59.599Z,47.80
2017-09-29T02:35:29.450Z,47.70
2017-09-29T02:37:59.362Z,49.53
2017-09-29T02:40:29.222Z,46.90
2017-09-29T02:42:59.198Z,47.37
2017-09-29T02:45:29.104Z,45.07
2017-09-29T02:47:58.948Z,46.20
2017-09-29T02:50:29.287Z,47.03
2017-09-29T02:52:59.180Z,45.87
2017-09-29T02:55:29.055Z,45.43
2017-09-29T02:58:02.092Z,47.27
2017-09-29T03:00:32.614Z,47.53
2017-09-29T03:03:02.859Z,49.60
2017-09-29T03:05:34.098Z,51.13
2017-09-29T03:08:03.954Z,49.07
2017-09-29T03:10:34.133Z,51.80
2017-09-29T03:13:03.996Z,49.90
2017-09-29T03:15:34.154Z,49.43
2017-09-29T03:18:04.030Z,49.53
2017-09-29T03:20:33.953Z,50.50
2017-09-29T03:23:03.826Z,49.07
2017-09-29T03:25:34.003Z,51.03
2017-09-29T03:28:03.895Z,47.90
2017-09-29T03:30:33.783Z,48.83
2017-09-29T03:33:03.675Z,52.63
2017-09-29T03:35:33.894Z,48.60
2017-09-29T03:38:03.784Z,48.77
2017-09-29T03:40:33.666Z,48.00
2017-09-29T03:43:03.527Z,49.80
2017-09-29T03:45:33.424Z,46.73
2017-09-29T03:48:03.333Z,49.63
2017-09-29T03:50:41.067Z,47.77
2017-09-29T03:53:12.503Z,47.80
2017-09-29T03:55:42.910Z,49.83
2017-09-29T03:58:14.386Z,45.90
2017-09-29T04:00:44.284Z,47.70
2017-09-29T04:03:14.972Z,46.03
2017-09-29T04:05:44.858Z,47.03
2017-09-29T04:08:15.310Z,45.20
2017-09-29T04:10:45.178Z,44.70
2017-09-29T04:13:15.386Z,48.50
2017-09-29T04:15:45.458Z,44.63
2017-09-29T04:18:15.498Z,46.53
2017-09-29T04:20:45.372Z,45.73
2017-09-29T04:23:15.246Z,48.00
2017-09-29T04:25:45.127Z,45.90
2017-09-29T04:28:15.591Z,46.20
2017-09-29T04:30:45.576Z,49.00
2017-09-29T04:33:15.450Z,49.00
2017-09-29T04:35:45.377Z,47.67
2017-09-29T04:38:15.243Z,48.30
2017-09-29T04:40:45.195Z,48.23
2017-09-29T04:43:15.127Z,48.33
2017-09-29T04:45:45.052Z,47.40
2017-09-29T04:48:15.307Z,48.07
2017-09-29T04:50:45.180Z,49.83
2017-09-29T04:53:15.444Z,51.87
2017-09-29T04:55:45.318Z,52.10
2017-09-29T04:58:15.649Z,49.33
2017-09-29T05:00:45.508Z,47.40
2017-09-29T05:03:15.409Z,50.50
2017-09-29T05:05:45.307Z,53.17
2017-09-29T05:08:15.218Z,51.10
2017-09-29T05:10:45.087Z,50.83
2017-09-29T05:13:14.964Z,54.00
2017-09-29T05:15:44.844Z,53.87
2017-09-29T05:18:14.747Z,53.07
2017-09-29T05:20:45.017Z,52.10
2017-09-29T05:23:14.884Z,50.47
2017-09-29T05:25:44.804Z,50.63
2017-09-29T05:28:14.713Z,52.73
2017-09-29T05:30:44.602Z,53.70
2017-09-29T05:33:14.485Z,51.90
2017-09-29T05:35:44.368Z,51.90
2017-09-29T05:38:14.294Z,52.27
2017-09-29T05:40:44.170Z,54.33
2017-09-29T05:43:14.119Z,52.57
2017-09-29T05:45:43.995Z,57.63
2017-09-29T05:48:14.147Z,55.00
2017-09-29T05:50:44.048Z,54.23
2017-09-29T05:53:14.269Z,55.20
2017-09-29T05:55:44.145Z,53.20
2017-09-29T05:58:14.285Z,54.30
2017-09-29T06:00:44.154Z,52.77
2017-09-29T06:03:14.459Z,52.77
2017-09-29T06:05:44.352Z,52.03
2017-09-29T06:08:14.479Z,50.07
2017-09-29T06:10:44.429Z,53.20
2017-09-29T06:13:14.358Z,48.47
2017-09-29T06:15:44.233Z,51.20
2017-09-29T06:18:14.103Z,50.27
2017-09-29T06:20:44.018Z,50.63
2017-09-29T06:23:13.896Z,54.10
2017-09-29T06:25:43.935Z,51.50
2017-09-29T06:28:13.960Z,51.70
2017-09-29T06:30:44.223Z,50.90
2017-09-29T06:33:14.083Z,53.77
2017-09-29T06:35:43.977Z,51.93
2017-09-29T06:38:13.863Z,51.83
2017-09-29T06:40:44.085Z,52.17
2017-09-29T06:43:13.967Z,51.07
2017-09-29T06:45:43.871Z,53.20
2017-09-29T06:48:15.169Z,54.87
2017-09-29T06:50:45.393Z,51.43
2017-09-29T06:53:15.288Z,51.30
2017-09-29T06:55:45.514Z,49.97
2017-09-29T06:58:15.373Z,49.20
2017-09-29T07:00:45.275Z,52.03
2017-09-29T07:03:15.142Z,49.53
2017-09-29T07:05:45.036Z,47.93
2017-09-29T07:08:14.954Z,49.70
2017-09-29T07:10:44.819Z,52.30
2017-09-29T07:13:14.698Z,48.00
2017-09-29T07:15:44.656Z,48.80
2017-09-29T07:18:14.585Z,46.90
2017-09-29T07:20:44.484Z,47.10
2017-09-29T07:23:14.526Z,45.73
2017-09-29T07:25:45.829Z,48.37
2017-09-29T07:28:17.018Z,48.73
2017-09-29T07:30:47.351Z,46.37
2017-09-29T07:33:17.447Z,46.10
2017-09-29T07:35:47.329Z,47.30
2017-09-29T07:38:17.220Z,44.90
2017-09-29T07:40:47.575Z,45.07
2017-09-29T07:43:17.458Z,43.73
2017-09-29T07:45:47.414Z,45.70
2017-09-29T07:48:17.328Z,44.37
2017-09-29T07:50:47.213Z,42.27
2017-09-29T07:53:17.523Z,43.60
2017-09-29T07:55:47.477Z,43.47
2017-09-29T07:58:17.394Z,42.37
2017-09-29T08:00:47.272Z,43.93
2017-09-29T08:03:17.153Z,43.17
2017-09-29T08:05:47.371Z,43.80
2017-09-29T08:08:17.273Z,43.93
2017-09-29T08:10:47.542Z,42.53
2017-09-29T08:13:17.414Z,44.20
2017-09-29T08:15:47.322Z,45.30
2017-09-29T08:18:17.193Z,45.70
2017-09-29T08:20:47.083Z,46.10
2017-09-29T08:23:17.331Z,43.93
2017-09-29T08:25:47.198Z,43.77
2017-09-29T08:28:17.540Z,45.00
2017-09-29T08:30:47.409Z,41.47
2017-09-29T08:33:17.686Z,42.17
2017-09-29T08:35:47.598Z,43.13
2017-09-29T08:38:17.836Z,44.33
2017-09-29T08:40:47.778Z,42.77
2017-09-29T08:43:18.063Z,41.80
2017-09-29T08:45:47.992Z,44.50
2017-09-29T08:48:18.237Z,45.30
2017-09-29T08:50:48.106Z,42.77
2017-09-29T08:53:18.347Z,44.93
2017-09-29T08:55:48.264Z,42.10
2017-09-29T08:58:18.558Z,40.83
2017-09-29T09:00:48.439Z,40.80
2017-09-29T09:03:18.438Z,38.97
2017-09-29T09:05:48.349Z,41.13
2017-09-29T09:08:18.260Z,40.07
2017-09-29T09:10:48.543Z,41.83
2017-09-29T09:13:18.401Z,41.87
2017-09-29T09:15:48.405Z,40.23
2017-09-29T09:18:18.272Z,41.40
2017-09-29T09:20:48.136Z,40.17
2017-09-29T09:23:18.406Z,41.13
2017-09-29T09:25:48.303Z,42.57
2017-09-29T09:28:18.186Z,39.07
2017-09-29T09:30:48.070Z,39.07
2017-09-29T09:33:18.331Z,38.40
2017-09-29T09:35:48.246Z,38.57
2017-09-29T09:38:18.520Z,39.80
2017-09-29T09:40:48.426Z,40.60
2017-09-29T09:43:18.323Z,39.17
2017-09-29T09:45:48.215Z,38.30
2017-09-29T09:48:18.091Z,39.07
2017-09-29T09:50:48.344Z,39.70
2017-09-29T09:53:18.234Z,42.40
2017-09-29T09:55:48.514Z,39.47
2017-09-29T09:58:18.394Z,40.10
2017-09-29T10:00:48.274Z,39.00
2017-09-29T10:03:18.317Z,39.40
2017-09-29T10:05:48.203Z,37.50
2017-09-29T10:08:18.505Z,35.87
2017-09-29T10:10:48.416Z,37.27
2017-09-29T10:13:18.314Z,39.97
2017-09-29T10:15:48.237Z,37.03
2017-09-29T10:18:18.141Z,38.50
2017-09-29T10:20:48.417Z,36.50
2017-09-29T10:23:18.486Z,36.30
2017-09-29T10:25:48.722Z,37.50
2017-09-29T10:28:18.599Z,39.60
2017-09-29T10:30:48.878Z,35.37
2017-09-29T10:33:19.575Z,35.40
2017-09-29T10:35:49.837Z,37.60
2017-09-29T10:38:20.508Z,37.50
2017-09-29T10:40:50.851Z,37.87
2017-09-29T10:43:20.747Z,36.30
2017-09-29T10:45:51.114Z,37.20
2017-09-29T10:48:20.987Z,37.53
2017-09-29T10:50:51.252Z,36.37
2017-09-29T10:53:21.242Z,35.90
2017-09-29T10:55:51.708Z,35.50
2017-09-29T10:58:21.566Z,36.90
2017-09-29T11:00:51.904Z,34.33
2017-09-29T11:03:21.803Z,34.90
2017-09-29T11:05:52.086Z,34.37
2017-09-29T11:08:22.035Z,34.20
2017-09-29T11:10:52.285Z,32.87
2017-09-29T11:13:22.191Z,33.40
2017-09-29T11:15:52.456Z,34.07
2017-09-29T11:18:22.416Z,35.10
2017-09-29T11:20:52.424Z,32.70
2017-09-29T11:23:22.294Z,34.00
2017-09-29T11:25:52.213Z,32.73
2017-09-29T11:28:22.485Z,33.23
2017-09-29T11:30:52.407Z,31.13
2017-09-29T11:33:22.369Z,30.80
2017-09-29T11:35:52.347Z,30.13
2017-09-29T11:38:22.274Z,33.37
2017-09-29T11:40:52.565Z,28.60
2017-09-29T11:43:22.434Z,31.10
2017-09-29T11:45:52.347Z,32.50
2017-09-29T11:48:22.227Z,28.80
2017-09-29T11:50:52.150Z,29.50
2017-09-29T11:53:22.455Z,30.47
2017-09-29T11:55:52.315Z,28.23
2017-09-29T11:58:22.765Z,28.50
2017-09-29T12:00:52.669Z,29.53
2017-09-29T12:03:22.920Z,29.40
2017-09-29T12:05:52.830Z,30.20
2017-09-29T12:08:23.266Z,26.23
2017-09-29T12:10:53.151Z,27.87
2017-09-29T12:13:23.391Z,27.20
2017-09-29T12:15:53.259Z,28.17
2017-09-29T12:18:23.525Z,28.83
2017-09-29T12:20:53.403Z,27.90
2017-09-29T12:23:23.382Z,29.40
2017-09-29T12:25:53.363Z,28.87
2017-09-29T12:28:23.243Z,27.80
2017-09-29T12:30:53.118Z,28.73
2017-09-29T12:33:23.146Z,28.10
2017-09-29T12:35:53.437Z,27.47
2017-09-29T12:38:23.317Z,28.33
2017-09-29T12:40:53.666Z,25.60
2017-09-29T12:43:23.644Z,28.67
2017-09-29T12:45:53.914Z,27.00
2017-09-29T12:48:23.846Z,26.43
2017-09-29T12:50:54.145Z,27.03
2017-09-29T12:53:24.027Z,28.97
2017-09-29T12:55:54.442Z,27.90
2017-09-29T12:58:24.407Z,27.57
2017-09-29T13:00:54.771Z,25.30
2017-09-29T13:03:24.663Z,27.63
2017-09-29T13:05:54.932Z,25.33
2017-09-29T13:08:24.808Z,26.13
2017-09-29T13:10:55.103Z,27.13
2017-09-29T13:13:25.027Z,25.03
2017-09-29T13:15:55.389Z,25.40
2017-09-29T13:18:25.290Z,26.33
2017-09-29T13:20:55.680Z,25.70
2017-09-29T13:23:25.570Z,26.17
2017-09-29T13:25:56.094Z,27.30
2017-09-29T13:28:26.065Z,26.80
2017-09-29T13:30:56.465Z,24.10
2017-09-29T13:33:26.344Z,27.00
2017-09-29T13:35:56.722Z,31.97
2017-09-29T13:38:26.620Z,26.47
2017-09-29T13:40:56.920Z,25.37
2017-09-29T13:43:26.799Z,27.40
2017-09-29T13:45:57.090Z,27.70
2017-09-29T13:48:26.974Z,26.60
2017-09-29T13:50:57.318Z,26.37
2017-09-29T13:53:27.206Z,26.47
2017-09-29T13:55:57.662Z,26.33
2017-09-29T13:58:27.616Z,27.30
2017-09-29T14:00:57.874Z,24.37
2017-09-29T14:03:27.831Z,28.23
2017-09-29T14:05:58.140Z,26.40
2017-09-29T14:08:28.018Z,26.50
2017-09-29T14:10:58.342Z,25.67
2017-09-29T14:13:28.218Z,26.23
2017-09-29T14:15:58.480Z,26.67
2017-09-29T14:18:28.390Z,25.70
2017-09-29T14:20:58.745Z,30.10
2017-09-29T14:23:28.621Z,26.40
2017-09-29T14:25:58.494Z,27.80
2017-09-29T14:28:28.762Z,25.63
2017-09-29T14:30:58.637Z,24.37
2017-09-29T14:33:28.905Z,25.57
2017-09-29T14:35:58.787Z,25.83
2017-09-29T14:38:29.238Z,25.57
2017-09-29T14:40:59.114Z,25.47
2017-09-29T14:43:29.483Z,24.93
2017-09-29T14:45:59.340Z,25.27
2017-09-29T14:48:29.645Z,24.53
2017-09-29T14:50:59.523Z,24.90
2017-09-29T14:53:29.415Z,24.70
2017-09-29T14:55:59.317Z,24.30
2017-09-29T14:58:29.275Z,27.23
2017-09-29T15:00:59.130Z,25.30
2017-09-29T15:03:29.074Z,25.60
2017-09-29T15:05:59.415Z,26.67
2017-09-29T15:08:29.298Z,25.43
2017-09-29T15:10:59.738Z,26.00
2017-09-29T15:13:29.634Z,22.87
2017-09-29T15:16:00.008Z,26.80
2017-09-29T15:18:29.845Z,25.47
2017-09-29T15:21:00.061Z,23.40
2017-09-29T15:23:29.929Z,25.20
2017-09-29T15:26:00.163Z,24.17
2017-09-29T15:28:30.139Z,25.83
2017-09-29T15:31:00.401Z,24.60
2017-09-29T15:33:30.289Z,25.27
2017-09-29T15:36:00.752Z,26.83
2017-09-29T15:38:30.627Z,26.07
2017-09-29T15:41:00.977Z,26.47
2017-09-29T15:43:30.852Z,26.87
2017-09-29T15:46:01.105Z,27.87
2017-09-29T15:48:30.964Z,26.70
2017-09-29T15:51:01.230Z,26.83
2017-09-29T15:53:31.166Z,26.43
2017-09-29T15:56:01.485Z,27.70
2017-09-29T15:58:31.350Z,26.73
2017-09-29T16:01:01.729Z,26.30
2017-09-29T16:03:31.689Z,27.10
2017-09-29T16:06:01.942Z,27.73
2017-09-29T16:08:31.814Z,27.23
2017-09-29T16:11:02.249Z,25.67
2017-09-29T16:13:32.127Z,27.30
2017-09-29T16:16:02.442Z,27.50
2017-09-29T16:18:32.364Z,26.27
2017-09-29T16:21:02.665Z,31.03
2017-09-29T16:23:32.546Z,28.83
2017-09-29T16:26:02.472Z,28.27
2017-09-29T16:28:32.334Z,28.63
2017-09-29T16:31:02.306Z,27.60
2017-09-29T16:33:32.655Z,29.00
2017-09-29T16:36:02.559Z,27.70
2017-09-29T16:38:32.878Z,29.40
2017-09-29T16:41:02.821Z,29.93
2017-09-29T16:43:33.137Z,30.10
2017-09-29T16:46:03.056Z,26.90
2017-09-29T16:48:33.306Z,30.53
2017-09-29T16:51:03.253Z,29.23
2017-09-29T16:53:33.675Z,29.70
2017-09-29T16:56:03.541Z,30.13
2017-09-29T16:58:33.431Z,30.37
2017-09-29T17:01:03.295Z,29.87
2017-09-29T17:03:33.193Z,32.33
2017-09-29T17:06:03.427Z,30.27
2017-09-29T17:08:33.307Z,30.80
2017-09-29T17:11:03.610Z,37.57
2017-09-29T17:13:33.500Z,32.33
2017-09-29T17:16:03.373Z,33.13
2017-09-29T17:18:33.307Z,32.57
2017-09-29T17:21:03.183Z,31.10
2017-09-29T17:23:33.480Z,32.20
2017-09-29T17:26:03.386Z,31.03
2017-09-29T17:28:33.727Z,32.90
2017-09-29T17:31:03.656Z,35.10
2017-09-29T17:33:33.935Z,37.90
2017-09-29T17:36:03.814Z,39.43
2017-09-29T17:38:34.122Z,32.53
2017-09-29T17:41:04.045Z,33.07
2017-09-29T17:43:34.357Z,33.50
2017-09-29T17:46:04.226Z,33.23
2017-09-29T17:48:34.566Z,34.07
2017-09-29T17:51:04.582Z,33.30
2017-09-29T17:53:34.906Z,34.77
2017-09-29T17:56:04.962Z,31.60
2017-09-29T17:58:35.228Z,32.70
2017-09-29T18:01:05.140Z,33.33
2017-09-29T18:03:35.462Z,33.20
2017-09-29T18:06:05.383Z,31.67
2017-09-29T18:08:35.731Z,30.20
2017-09-29T18:11:06.485Z,29.60
2017-09-29T18:13:36.788Z,28.97
2017-09-29T18:16:06.675Z,31.90
2017-09-29T18:18:36.879Z,28.90
2017-09-29T18:21:06.788Z,29.40
2017-09-29T18:23:37.139Z,29.80
2017-09-29T18:26:07.016Z,27.93
2017-09-29T18:28:37.386Z,27.87
2017-09-29T18:31:07.278Z,26.63
2017-09-29T18:33:37.530Z,25.07
2017-09-29T18:36:07.410Z,25.80
2017-09-29T18:38:37.291Z,27.53
2017-09-29T18:41:07.609Z,25.57
2017-09-29T18:43:37.509Z,26.03
2017-09-29T18:46:22.253Z,26.30
2017-09-29T18:48:52.135Z,27.07
2017-09-29T18:51:22.012Z,27.10
2017-09-29T18:53:51.994Z,24.40
2017-09-29T18:56:22.301Z,27.70
2017-09-29T18:58:52.201Z,26.00
2017-09-29T19:01:22.646Z,25.83
2017-09-29T19:03:52.545Z,24.87
2017-09-29T19:06:22.458Z,24.80
2017-09-29T19:08:52.349Z,21.93
2017-09-29T19:11:22.258Z,23.47
2017-09-29T19:13:52.610Z,23.70
2017-09-29T19:16:22.499Z,24.03
2017-09-29T19:18:52.398Z,24.90
2017-09-29T19:21:22.306Z,25.53
2017-09-29T19:23:52.260Z,23.83
2017-09-29T19:26:22.570Z,24.00
2017-09-29T19:28:52.440Z,25.27
2017-09-29T19:31:22.354Z,24.20
2017-09-29T19:33:52.251Z,24.87
2017-09-29T19:36:22.143Z,25.97
2017-09-29T19:38:52.491Z,30.57
2017-09-29T19:41:22.365Z,23.53
2017-09-29T19:43:52.624Z,24.57
2017-09-29T19:46:22.535Z,25.23
2017-09-29T19:48:53.015Z,24.40
2017-09-29T19:51:22.915Z,23.07
2017-09-29T19:53:52.835Z,23.40
2017-09-29T19:56:23.012Z,23.80
2017-09-29T19:58:52.892Z,22.33
2017-09-29T20:01:23.245Z,23.53
2017-09-29T20:03:53.122Z,22.83
2017-09-29T20:06:23.486Z,23.33
2017-09-29T20:08:53.381Z,22.60
2017-09-29T20:11:23.830Z,21.80
2017-09-29T20:13:53.729Z,20.47
2017-09-29T20:16:24.075Z,20.83
2017-09-29T20:18:53.966Z,21.80
2017-09-29T20:21:24.188Z,22.23
2017-09-29T20:23:54.183Z,24.00
2017-09-29T20:26:24.438Z,22.87
2017-09-29T20:28:54.320Z,21.10
2017-09-29T20:31:24.658Z,20.23
2017-09-29T20:33:54.563Z,20.60
2017-09-29T20:36:24.457Z,21.70
2017-09-29T20:38:54.315Z,22.50
2017-09-29T20:41:24.192Z,20.47
2017-09-29T20:43:54.536Z,19.80
2017-09-29T20:46:24.408Z,20.10
2017-09-29T20:48:54.651Z,18.40
2017-09-29T20:51:24.564Z,19.63
2017-09-29T20:53:54.940Z,19.20
2017-09-29T20:56:24.843Z,21.17
2017-09-29T20:58:55.268Z,19.67
2017-09-29T21:01:25.165Z,18.43
2017-09-29T21:03:55.413Z,19.97
2017-09-29T21:06:25.279Z,20.80
2017-09-29T21:08:55.522Z,19.30
2017-09-29T21:11:25.430Z,18.10
2017-09-29T21:13:55.451Z,20.07
2017-09-29T21:16:25.329Z,18.60
2017-09-29T21:18:55.276Z,18.80
2017-09-29T21:21:25.603Z,18.17
2017-09-29T21:23:55.487Z,19.20
2017-09-29T21:26:25.388Z,17.90
2017-09-29T21:28:55.287Z,19.70
2017-09-29T21:31:25.223Z,18.33
2017-09-29T21:33:55.532Z,17.57
2017-09-29T21:36:25.465Z,20.07
2017-09-29T21:38:55.366Z,18.90
2017-09-29T21:41:25.654Z,18.40
2017-09-29T21:43:55.572Z,18.33
2017-09-29T21:46:25.873Z,19.80
2017-09-29T21:48:55.766Z,20.10
2017-09-29T21:51:26.006Z,19.80
2017-09-29T21:53:55.885Z,17.87
2017-09-29T21:56:26.245Z,18.83
2017-09-29T21:58:56.123Z,18.50
2017-09-29T22:01:26.366Z,18.20
2017-09-29T22:03:56.258Z,19.30
2017-09-29T22:06:26.699Z,18.80
2017-09-29T22:08:56.654Z,19.27
2017-09-29T22:11:26.896Z,18.37
2017-09-29T22:13:56.982Z,18.77
2017-09-29T22:16:27.248Z,20.10
2017-09-29T22:18:57.164Z,19.00
2017-09-29T22:21:27.393Z,19.70
2017-09-29T22:23:57.310Z,19.10
2017-09-29T22:26:27.617Z,19.27
2017-09-29T22:28:57.487Z,21.87
2017-09-29T22:31:27.358Z,19.10
2017-09-29T22:33:57.238Z,19.50
2017-09-29T22:36:27.151Z,19.77
2017-09-29T22:38:57.520Z,19.33
2017-09-29T22:41:27.385Z,19.20
2017-09-29T22:43:57.638Z,19.10
2017-09-29T22:46:27.520Z,19.33
2017-09-29T22:48:58.000Z,20.00
2017-09-29T22:51:27.863Z,19.47
2017-09-29T22:53:58.161Z,18.77
2017-09-29T22:56:28.026Z,19.37
2017-09-29T22:58:58.371Z,20.37
2017-09-29T23:01:28.221Z,19.00
2017-09-29T23:03:58.509Z,21.47
2017-09-29T23:06:28.426Z,19.07
2017-09-29T23:08:58.842Z,19.63
2017-09-29T23:11:28.714Z,20.10
2017-09-29T23:13:58.989Z,20.37
2017-09-29T23:16:28.894Z,20.40
2017-09-29T23:18:59.139Z,21.40
2017-09-29T23:21:29.115Z,22.07
2017-09-29T23:23:59.363Z,22.47
2017-09-29T23:26:29.225Z,22.33
2017-09-29T23:28:59.494Z,20.67
2017-09-29T23:31:29.410Z,22.43
2017-09-29T23:33:59.318Z,19.57
2017-09-29T23:36:29.194Z,20.70
2017-09-29T23:38:59.109Z,20.93
2017-09-29T23:41:29.572Z,21.63
2017-09-29T23:43:59.457Z,20.47
2017-09-29T23:46:29.806Z,22.77
2017-09-29T23:48:59.722Z,21.00
2017-09-29T23:51:30.089Z,22.83
2017-09-29T23:54:00.100Z,20.10
2017-09-29T23:56:30.390Z,18.87
2017-09-29T23:59:00.241Z,21.30
